createdAt,value
2019-04-28T00:00:01.491Z,9.80
2019-04-28T00:01:00.803Z,9.80
2019-04-28T00:01:38.688Z,9.80
2019-04-28T00:02:15.458Z,9.80
2019-04-28T00:02:50.839Z,9.80
2019-04-28T00:03:26.003Z,9.80
2019-04-28T00:04:01.375Z,9.80
2019-04-28T00:04:37.903Z,9.80
2019-04-28T00:05:12.955Z,9.80
2019-04-28T00:05:48.982Z,9.80
2019-04-28T00:06:24.029Z,9.80
2019-04-28T00:06:59.118Z,9.80
2019-04-28T00:07:34.151Z,9.80
2019-04-28T00:08:10.890Z,9.80
2019-04-28T00:08:46.170Z,9.80
2019-04-28T00:09:23.161Z,9.80
2019-04-28T00:09:58.415Z,9.80
2019-04-28T00:10:33.442Z,9.80
2019-04-28T00:11:08.496Z,9.80
2019-04-28T00:11:43.891Z,9.80
2019-04-28T00:12:19.019Z,9.80
2019-04-28T00:12:54.077Z,9.80
2019-04-28T00:13:29.116Z,9.80
2019-04-28T00:14:04.725Z,9.80
2019-04-28T00:14:41.642Z,9.70
2019-04-28T00:15:17.515Z,9.80
2019-04-28T00:15:52.608Z,9.70
2019-04-28T00:16:27.919Z,9.70
2019-04-28T00:17:03.644Z,9.70
2019-04-28T00:17:38.811Z,9.70
2019-04-28T00:18:13.871Z,9.70
2019-04-28T00:18:50.967Z,9.70
2019-04-28T00:19:26.545Z,9.80
2019-04-28T00:20:03.226Z,9.70
2019-04-28T00:21:00.849Z,9.80
2019-04-28T00:21:41.995Z,9.80
2019-04-28T00:22:25.738Z,9.80
2019-04-28T00:23:11.676Z,9.80
2019-04-28T00:24:11.965Z,9.80
2019-04-28T00:24:57.975Z,9.80
2019-04-28T00:25:36.722Z,9.80
2019-04-28T00:26:37.056Z,9.80
2019-04-28T00:27:14.300Z,9.80
2019-04-28T00:27:49.326Z,9.80
2019-04-28T00:28:24.453Z,9.80
2019-04-28T00:29:01.215Z,9.80
2019-04-28T00:29:41.364Z,9.80
2019-04-28T00:30:13.750Z,9.80
2019-04-28T00:30:48.862Z,9.80
2019-04-28T00:31:24.676Z,9.80
2019-04-28T00:32:01.164Z,9.80
2019-04-28T00:32:36.302Z,9.80
2019-04-28T00:33:11.746Z,9.70
2019-04-28T00:33:46.836Z,9.70
2019-04-28T00:34:21.860Z,9.70
2019-04-28T00:34:56.919Z,9.70
2019-04-28T00:35:35.275Z,9.70
2019-04-28T00:36:11.547Z,9.70
2019-04-28T00:36:48.339Z,9.70
2019-04-28T00:37:29.274Z,9.70
2019-04-28T00:38:04.289Z,9.70
2019-04-28T00:38:41.388Z,9.80
2019-04-28T00:39:16.278Z,9.70
2019-04-28T00:39:51.342Z,9.80
2019-04-28T00:40:26.667Z,9.80
2019-04-28T00:41:02.423Z,9.70
2019-04-28T00:41:37.636Z,9.70
2019-04-28T00:42:12.775Z,9.80
2019-04-28T00:42:47.805Z,9.70
2019-04-28T00:43:23.194Z,9.70
2019-04-28T00:43:58.231Z,9.70
2019-04-28T00:44:33.339Z,9.70
2019-04-28T00:45:09.210Z,9.70
2019-04-28T00:45:44.244Z,9.70
2019-04-28T00:46:21.731Z,9.70
2019-04-28T00:46:56.920Z,9.70
2019-04-28T00:47:34.822Z,9.80
2019-04-28T00:48:10.970Z,9.70
2019-04-28T00:48:46.411Z,9.70
2019-04-28T00:49:41.960Z,9.80
2019-04-28T00:50:17.154Z,9.70
2019-04-28T00:50:52.186Z,9.70
2019-04-28T00:51:27.254Z,9.70
2019-04-28T00:52:03.092Z,9.80
2019-04-28T00:52:38.490Z,9.80
2019-04-28T00:53:13.907Z,9.70
2019-04-28T00:53:50.768Z,9.80
2019-04-28T00:54:25.680Z,9.80
2019-04-28T00:55:01.277Z,9.80
2019-04-28T00:55:36.527Z,9.70
2019-04-28T00:56:12.122Z,9.70
2019-04-28T00:56:47.315Z,9.70
2019-04-28T00:57:22.357Z,9.70
2019-04-28T00:57:57.722Z,9.70
2019-04-28T00:58:32.743Z,9.70
2019-04-28T00:59:07.846Z,9.70
2019-04-28T00:59:53.972Z,9.70
2019-04-28T01:00:23.046Z,9.70
2019-04-28T01:01:01.394Z,9.70
2019-04-28T01:01:43.579Z,9.70
2019-04-28T01:02:31.286Z,9.70
2019-04-28T01:03:06.660Z,9.70
2019-04-28T01:03:42.126Z,9.70
2019-04-28T01:04:17.891Z,9.80
2019-04-28T01:04:54.327Z,9.70
2019-04-28T01:05:31.077Z,9.80
2019-04-28T01:06:06.295Z,9.70
2019-04-28T01:06:43.035Z,9.70
2019-04-28T01:07:18.380Z,9.70
2019-04-28T01:07:53.506Z,9.70
2019-04-28T01:08:28.671Z,9.70
2019-04-28T01:09:04.435Z,9.70
2019-04-28T01:09:41.657Z,9.70
2019-04-28T01:10:16.866Z,9.70
2019-04-28T01:10:52.503Z,9.70
2019-04-28T01:11:31.715Z,9.70
2019-04-28T01:12:07.400Z,9.70
2019-04-28T01:12:42.556Z,9.70
2019-04-28T01:13:18.112Z,9.70
2019-04-28T01:13:55.295Z,9.70
2019-04-28T01:14:31.044Z,9.70
2019-04-28T01:15:15.061Z,9.70
2019-04-28T01:16:00.133Z,9.80
2019-04-28T01:16:46.851Z,9.70
2019-04-28T01:17:36.717Z,9.70
2019-04-28T01:18:27.828Z,9.70
2019-04-28T01:19:10.042Z,9.80
2019-04-28T01:19:47.439Z,9.80
2019-04-28T01:20:22.942Z,9.70
2019-04-28T01:20:59.624Z,9.70
2019-04-28T01:22:07.194Z,9.80
2019-04-28T01:22:42.271Z,9.70
2019-04-28T01:23:17.871Z,9.80
2019-04-28T01:23:53.268Z,9.70
2019-04-28T01:24:29.749Z,9.70
2019-04-28T01:25:05.486Z,9.70
2019-04-28T01:25:40.633Z,9.70
2019-04-28T01:26:16.250Z,9.70
2019-04-28T01:26:52.926Z,9.70
2019-04-28T01:27:50.314Z,9.70
2019-04-28T01:28:25.268Z,9.70
2019-04-28T01:29:00.287Z,9.70
2019-04-28T01:29:35.452Z,9.70
2019-04-28T01:30:16.882Z,9.70
2019-04-28T01:31:05.420Z,9.70
2019-04-28T01:31:49.352Z,9.70
2019-04-28T01:32:32.357Z,9.70
2019-04-28T01:33:12.119Z,9.70
2019-04-28T01:34:06.242Z,9.70
2019-04-28T01:34:41.283Z,9.70
2019-04-28T01:35:16.321Z,9.70
2019-04-28T01:35:51.374Z,9.60
2019-04-28T01:36:26.741Z,9.60
2019-04-28T01:37:01.798Z,9.60
2019-04-28T01:37:37.120Z,9.70
2019-04-28T01:38:12.305Z,9.70
2019-04-28T01:38:47.427Z,9.70
2019-04-28T01:39:22.458Z,9.70
2019-04-28T01:39:59.554Z,9.70
2019-04-28T01:40:34.252Z,9.60
2019-04-28T01:41:09.852Z,9.60
2019-04-28T01:41:45.095Z,9.70
2019-04-28T01:42:20.440Z,9.60
2019-04-28T01:42:55.619Z,9.60
2019-04-28T01:43:31.252Z,9.60
2019-04-28T01:44:06.694Z,9.60
2019-04-28T01:44:42.055Z,9.60
2019-04-28T01:45:17.083Z,9.60
2019-04-28T01:45:52.187Z,9.60
2019-04-28T01:46:27.221Z,9.60
2019-04-28T01:47:02.502Z,9.60
2019-04-28T01:47:37.912Z,9.60
2019-04-28T01:48:12.963Z,9.60
2019-04-28T01:48:49.441Z,9.60
2019-04-28T01:49:24.802Z,9.60
2019-04-28T01:50:01.953Z,9.60
2019-04-28T01:50:37.054Z,9.60
2019-04-28T01:51:12.082Z,9.60
2019-04-28T01:52:00.538Z,9.60
2019-04-28T01:52:35.226Z,9.60
2019-04-28T01:53:10.258Z,9.60
2019-04-28T01:53:45.304Z,9.60
2019-04-28T01:54:20.338Z,9.60
2019-04-28T01:54:55.784Z,9.60
2019-04-28T01:55:31.351Z,9.60
2019-04-28T01:56:06.595Z,9.60
2019-04-28T01:56:41.652Z,9.60
2019-04-28T01:57:16.696Z,9.60
2019-04-28T01:57:51.979Z,9.60
2019-04-28T01:58:27.258Z,9.60
2019-04-28T01:59:02.327Z,9.60
2019-04-28T01:59:37.374Z,9.50
2019-04-28T02:00:23.058Z,9.60
2019-04-28T02:00:51.217Z,9.60
2019-04-28T02:01:26.254Z,9.60
2019-04-28T02:02:01.378Z,9.60
2019-04-28T02:02:36.438Z,9.60
2019-04-28T02:03:11.497Z,9.50
2019-04-28T02:03:46.524Z,9.50
2019-04-28T02:04:21.568Z,9.50
2019-04-28T02:04:56.975Z,9.50
2019-04-28T02:05:32.063Z,9.50
2019-04-28T02:06:07.095Z,9.60
2019-04-28T02:06:42.130Z,9.60
2019-04-28T02:07:18.133Z,9.60
2019-04-28T02:07:53.399Z,9.50
2019-04-28T02:08:30.255Z,9.60
2019-04-28T02:09:06.854Z,9.50
2019-04-28T02:09:43.471Z,9.60
2019-04-28T02:10:20.192Z,9.60
2019-04-28T02:10:55.891Z,9.60
2019-04-28T02:11:32.390Z,9.60
2019-04-28T02:12:07.433Z,9.60
2019-04-28T02:12:42.708Z,9.60
2019-04-28T02:13:19.731Z,9.60
2019-04-28T02:13:54.471Z,9.60
2019-04-28T02:14:30.797Z,9.60
2019-04-28T02:15:06.455Z,9.60
2019-04-28T02:15:44.280Z,9.60
2019-04-28T02:16:19.512Z,9.60
2019-04-28T02:16:54.905Z,9.60
2019-04-28T02:17:30.724Z,9.60
2019-04-28T02:18:05.867Z,9.60
2019-04-28T02:18:40.919Z,9.60
2019-04-28T02:19:15.938Z,9.60
2019-04-28T02:19:51.518Z,9.60
2019-04-28T02:20:26.957Z,9.60
2019-04-28T02:21:24.146Z,9.60
2019-04-28T02:22:10.478Z,9.60
2019-04-28T02:22:55.471Z,9.60
2019-04-28T02:23:31.884Z,9.50
2019-04-28T02:24:25.212Z,9.60
2019-04-28T02:25:00.378Z,9.60
2019-04-28T02:25:35.495Z,9.50
2019-04-28T02:26:10.540Z,9.50
2019-04-28T02:26:45.823Z,9.60
2019-04-28T02:27:21.186Z,9.50
2019-04-28T02:27:57.191Z,9.60
2019-04-28T02:28:32.383Z,9.60
2019-04-28T02:29:07.440Z,9.50
2019-04-28T02:29:42.454Z,9.60
2019-04-28T02:30:17.501Z,9.60
2019-04-28T02:30:53.759Z,9.60
2019-04-28T02:31:31.752Z,9.50
2019-04-28T02:32:10.294Z,9.60
2019-04-28T02:32:44.339Z,9.60
2019-04-28T02:33:21.163Z,9.60
2019-04-28T02:33:56.112Z,9.60
2019-04-28T02:34:31.428Z,9.50
2019-04-28T02:35:07.079Z,9.60
2019-04-28T02:35:42.336Z,9.60
2019-04-28T02:36:17.654Z,9.60
2019-04-28T02:36:53.979Z,9.60
2019-04-28T02:37:30.568Z,9.50
2019-04-28T02:38:05.891Z,9.50
2019-04-28T02:38:41.574Z,9.50
2019-04-28T02:39:17.179Z,9.50
2019-04-28T02:39:52.222Z,9.50
2019-04-28T02:40:30.345Z,9.50
2019-04-28T02:41:04.263Z,9.50
2019-04-28T02:41:41.142Z,9.50
2019-04-28T02:42:16.146Z,9.50
2019-04-28T02:42:52.361Z,9.50
2019-04-28T02:43:27.477Z,9.50
2019-04-28T02:44:02.508Z,9.50
2019-04-28T02:44:40.252Z,9.50
2019-04-28T02:45:21.496Z,9.50
2019-04-28T02:45:55.342Z,9.50
2019-04-28T02:46:30.889Z,9.50
2019-04-28T02:47:06.013Z,9.50
2019-04-28T02:47:42.041Z,9.50
2019-04-28T02:48:22.089Z,9.50
2019-04-28T02:48:57.116Z,9.50
2019-04-28T02:49:51.276Z,9.50
2019-04-28T02:50:35.388Z,9.50
2019-04-28T02:51:20.909Z,9.40
2019-04-28T02:52:11.316Z,9.50
2019-04-28T02:53:02.864Z,9.50
2019-04-28T02:53:42.672Z,9.40
2019-04-28T02:54:20.288Z,9.50
2019-04-28T02:54:54.729Z,9.40
2019-04-28T02:55:31.641Z,9.50
2019-04-28T02:56:06.605Z,9.50
2019-04-28T02:56:43.727Z,9.50
2019-04-28T02:57:20.643Z,9.50
2019-04-28T02:57:55.128Z,9.50
2019-04-28T02:58:31.276Z,9.50
2019-04-28T02:59:07.626Z,9.50
2019-04-28T02:59:44.713Z,9.50
2019-04-28T03:00:21.649Z,9.50
2019-04-28T03:01:06.785Z,9.50
2019-04-28T03:01:33.003Z,9.50
2019-04-28T03:02:10.342Z,9.40
2019-04-28T03:02:44.762Z,9.50
2019-04-28T03:03:21.123Z,9.50
2019-04-28T03:03:56.363Z,9.50
2019-04-28T03:04:31.723Z,9.50
2019-04-28T03:05:07.174Z,9.50
2019-04-28T03:05:42.488Z,9.40
2019-04-28T03:06:20.621Z,9.50
2019-04-28T03:06:55.208Z,9.40
2019-04-28T03:07:31.232Z,9.40
2019-04-28T03:08:06.503Z,9.40
2019-04-28T03:08:41.523Z,9.40
2019-04-28T03:09:16.556Z,9.50
2019-04-28T03:09:52.317Z,9.50
2019-04-28T03:10:27.619Z,9.50
2019-04-28T03:11:02.947Z,9.50
2019-04-28T03:11:38.328Z,9.40
2019-04-28T03:12:13.456Z,9.40
2019-04-28T03:12:51.342Z,9.50
2019-04-28T03:13:25.287Z,9.40
2019-04-28T03:14:01.073Z,9.50
2019-04-28T03:14:37.356Z,9.50
2019-04-28T03:15:14.036Z,9.40
2019-04-28T03:15:51.607Z,9.50
2019-04-28T03:16:26.199Z,9.40
2019-04-28T03:17:01.256Z,9.40
2019-04-28T03:17:36.387Z,9.40
2019-04-28T03:18:11.671Z,9.40
2019-04-28T03:18:46.873Z,9.40
2019-04-28T03:19:22.172Z,9.50
2019-04-28T03:19:57.482Z,9.40
2019-04-28T03:20:32.773Z,9.50
2019-04-28T03:21:07.876Z,9.40
2019-04-28T03:21:42.940Z,9.50
2019-04-28T03:22:20.439Z,9.40
2019-04-28T03:22:55.843Z,9.40
2019-04-28T03:23:31.360Z,9.40
2019-04-28T03:24:06.512Z,9.40
2019-04-28T03:24:53.555Z,9.40
2019-04-28T03:25:45.126Z,9.40
2019-04-28T03:26:33.544Z,9.50
2019-04-28T03:27:20.389Z,9.40
2019-04-28T03:28:03.504Z,9.40
2019-04-28T03:28:45.694Z,9.40
2019-04-28T03:29:43.270Z,9.50
2019-04-28T03:30:36.000Z,9.40
2019-04-28T03:31:59.235Z,9.40
2019-04-28T03:32:30.930Z,9.40
2019-04-28T03:32:58.443Z,9.40
2019-04-28T03:33:26.545Z,9.40
2019-04-28T03:34:03.840Z,9.40
2019-04-28T03:34:44.844Z,9.40
2019-04-28T03:35:22.936Z,9.40
2019-04-28T03:35:56.708Z,9.40
2019-04-28T03:36:33.363Z,9.40
2019-04-28T03:37:11.233Z,9.40
2019-04-28T03:37:47.155Z,9.40
2019-04-28T03:38:22.203Z,9.40
2019-04-28T03:38:57.385Z,9.40
2019-04-28T03:39:32.438Z,9.40
2019-04-28T03:40:07.539Z,9.40
2019-04-28T03:40:42.883Z,9.40
2019-04-28T03:41:20.988Z,9.40
2019-04-28T03:41:54.687Z,9.40
2019-04-28T03:42:31.415Z,9.30
2019-04-28T03:43:06.721Z,9.40
2019-04-28T03:43:41.758Z,9.30
2019-04-28T03:44:16.832Z,9.30
2019-04-28T03:44:52.075Z,9.40
2019-04-28T03:45:32.360Z,9.30
2019-04-28T03:46:13.376Z,9.30
2019-04-28T03:46:52.276Z,9.30
2019-04-28T03:47:30.861Z,9.30
2019-04-28T03:48:04.429Z,9.30
2019-04-28T03:48:40.969Z,9.30
2019-04-28T03:49:31.740Z,9.30
2019-04-28T03:50:06.819Z,9.30
2019-04-28T03:50:42.140Z,9.30
2019-04-28T03:51:17.189Z,9.30
2019-04-28T03:51:52.286Z,9.30
2019-04-28T03:52:27.323Z,9.30
2019-04-28T03:53:02.418Z,9.30
2019-04-28T03:53:37.513Z,9.30
2019-04-28T03:54:12.645Z,9.30
2019-04-28T03:54:50.872Z,9.30
2019-04-28T03:55:26.408Z,9.30
2019-04-28T03:56:01.885Z,9.30
2019-04-28T03:56:37.131Z,9.30
2019-04-28T03:57:12.492Z,9.30
2019-04-28T03:57:47.612Z,9.30
2019-04-28T03:58:24.298Z,9.30
2019-04-28T03:59:00.538Z,9.30
2019-04-28T03:59:36.108Z,9.30
2019-04-28T04:00:11.639Z,9.30
2019-04-28T04:00:50.423Z,9.30
2019-04-28T04:01:24.428Z,9.30
2019-04-28T04:02:03.165Z,9.20
2019-04-28T04:02:36.511Z,9.30
2019-04-28T04:03:11.551Z,9.30
2019-04-28T04:03:46.668Z,9.20
2019-04-28T04:04:21.751Z,9.30
2019-04-28T04:04:57.075Z,9.30
2019-04-28T04:05:32.126Z,9.30
2019-04-28T04:06:07.166Z,9.30
2019-04-28T04:06:42.236Z,9.30
2019-04-28T04:07:21.652Z,9.30
2019-04-28T04:07:56.200Z,9.30
2019-04-28T04:08:31.339Z,9.30
2019-04-28T04:09:06.387Z,9.30
2019-04-28T04:10:01.114Z,9.30
2019-04-28T04:10:42.597Z,9.30
2019-04-28T04:11:41.043Z,9.40
2019-04-28T04:12:44.340Z,9.30
2019-04-28T04:13:32.664Z,9.30
2019-04-28T04:14:28.090Z,9.30
2019-04-28T04:15:21.308Z,9.30
2019-04-28T04:16:21.226Z,9.30
2019-04-28T04:17:21.199Z,9.30
2019-04-28T04:18:04.928Z,9.30
2019-04-28T04:18:42.700Z,9.30
2019-04-28T04:19:20.167Z,9.30
2019-04-28T04:19:54.579Z,9.30
2019-04-28T04:20:31.050Z,9.30
2019-04-28T04:21:06.279Z,9.30
2019-04-28T04:21:41.698Z,9.30
2019-04-28T04:22:17.239Z,9.30
2019-04-28T04:22:52.340Z,9.30
2019-04-28T04:23:27.648Z,9.30
2019-04-28T04:24:02.845Z,9.30
2019-04-28T04:24:40.325Z,9.30
2019-04-28T04:25:14.953Z,9.30
2019-04-28T04:25:51.253Z,9.20
2019-04-28T04:26:26.844Z,9.30
2019-04-28T04:27:01.893Z,9.20
2019-04-28T04:27:37.180Z,9.20
2019-04-28T04:28:12.578Z,9.20
2019-04-28T04:28:47.856Z,9.30
2019-04-28T04:29:22.891Z,9.20
2019-04-28T04:29:57.954Z,9.20
2019-04-28T04:30:33.176Z,9.20
2019-04-28T04:31:10.477Z,9.20
2019-04-28T04:31:45.000Z,9.20
2019-04-28T04:32:26.203Z,9.20
2019-04-28T04:32:57.404Z,9.20
2019-04-28T04:33:32.456Z,9.20
2019-04-28T04:34:10.416Z,9.20
2019-04-28T04:34:44.416Z,9.20
2019-04-28T04:35:21.435Z,9.20
2019-04-28T04:35:56.490Z,9.30
2019-04-28T04:36:31.643Z,9.20
2019-04-28T04:37:06.746Z,9.30
2019-04-28T04:37:41.795Z,9.30
2019-04-28T04:38:17.225Z,9.30
2019-04-28T04:38:52.763Z,9.30
2019-04-28T04:39:30.154Z,9.30
2019-04-28T04:40:05.284Z,9.30
2019-04-28T04:40:41.341Z,9.30
2019-04-28T04:41:16.645Z,9.30
2019-04-28T04:41:52.356Z,9.30
2019-04-28T04:42:30.458Z,9.30
2019-04-28T04:43:04.479Z,9.30
2019-04-28T04:43:41.498Z,9.30
2019-04-28T04:44:16.280Z,9.30
2019-04-28T04:44:51.954Z,9.30
2019-04-28T04:45:27.017Z,9.30
2019-04-28T04:46:14.669Z,9.30
2019-04-28T04:46:50.870Z,9.30
2019-04-28T04:47:26.155Z,9.30
2019-04-28T04:48:01.512Z,9.30
2019-04-28T04:48:36.582Z,9.30
2019-04-28T04:49:11.600Z,9.30
2019-04-28T04:49:46.710Z,9.30
2019-04-28T04:50:21.778Z,9.30
2019-04-28T04:50:56.959Z,9.30
2019-04-28T04:51:32.019Z,9.30
2019-04-28T04:52:07.143Z,9.30
2019-04-28T04:52:42.230Z,9.40
2019-04-28T04:53:17.616Z,9.40
2019-04-28T04:53:52.741Z,9.30
2019-04-28T04:54:30.243Z,9.30
2019-04-28T04:55:04.650Z,9.30
2019-04-28T04:55:40.889Z,9.40
2019-04-28T04:56:16.199Z,9.30
2019-04-28T04:56:52.761Z,9.30
2019-04-28T04:57:27.780Z,9.30
2019-04-28T04:58:03.207Z,9.40
2019-04-28T04:58:40.686Z,9.40
2019-04-28T04:59:15.268Z,9.40
2019-04-28T04:59:50.427Z,9.40
2019-04-28T05:00:43.317Z,9.40
2019-04-28T05:01:44.966Z,9.40
2019-04-28T05:02:30.656Z,9.40
2019-04-28T05:03:10.558Z,9.40
2019-04-28T05:03:46.575Z,9.40
2019-04-28T05:04:39.937Z,9.40
2019-04-28T05:05:22.143Z,9.40
2019-04-28T05:05:57.178Z,9.40
2019-04-28T05:06:35.475Z,9.40
2019-04-28T05:07:10.913Z,9.40
2019-04-28T05:07:46.383Z,9.40
2019-04-28T05:08:21.450Z,9.40
2019-04-28T05:08:56.942Z,9.40
2019-04-28T05:09:32.335Z,9.40
2019-04-28T05:10:07.367Z,9.40
2019-04-28T05:10:42.413Z,9.40
2019-04-28T05:11:17.694Z,9.40
2019-04-28T05:11:52.735Z,9.40
2019-04-28T05:12:27.780Z,9.40
2019-04-28T05:13:03.162Z,9.30
2019-04-28T05:13:39.938Z,9.40
2019-04-28T05:14:15.714Z,9.30
2019-04-28T05:14:50.761Z,9.40
2019-04-28T05:15:25.794Z,9.30
2019-04-28T05:16:01.203Z,9.30
2019-04-28T05:16:36.250Z,9.30
2019-04-28T05:17:12.662Z,9.30
2019-04-28T05:17:47.702Z,9.40
2019-04-28T05:18:22.755Z,9.30
2019-04-28T05:18:59.907Z,9.30
2019-04-28T05:19:34.558Z,9.30
2019-04-28T05:20:09.916Z,9.30
2019-04-28T05:20:45.152Z,9.40
2019-04-28T05:21:21.529Z,9.40
2019-04-28T05:21:57.066Z,9.40
2019-04-28T05:22:35.494Z,9.40
2019-04-28T05:23:20.655Z,9.40
2019-04-28T05:24:15.874Z,9.40
2019-04-28T05:25:05.739Z,9.40
2019-04-28T05:25:42.267Z,9.30
2019-04-28T05:26:17.318Z,9.30
2019-04-28T05:26:52.394Z,9.30
2019-04-28T05:27:27.505Z,9.40
2019-04-28T05:28:03.056Z,9.40
2019-04-28T05:28:43.957Z,9.40
2019-04-28T05:29:21.730Z,9.40
2019-04-28T05:29:56.859Z,9.40
2019-04-28T05:30:29.719Z,9.40
2019-04-28T05:31:04.794Z,9.40
2019-04-28T05:31:40.215Z,9.40
2019-04-28T05:32:16.367Z,9.40
2019-04-28T05:32:56.139Z,9.40
2019-04-28T05:33:33.253Z,9.50
2019-04-28T05:34:08.169Z,9.50
2019-04-28T05:34:46.713Z,9.50
2019-04-28T05:35:22.029Z,9.50
2019-04-28T05:36:01.042Z,9.50
2019-04-28T05:36:41.198Z,9.50
2019-04-28T05:37:10.931Z,9.50
2019-04-28T05:37:45.973Z,9.50
2019-04-28T05:38:21.031Z,9.50
2019-04-28T05:38:56.778Z,9.50
2019-04-28T05:39:32.258Z,9.50
2019-04-28T05:40:07.299Z,9.50
2019-04-28T05:40:42.339Z,9.50
2019-04-28T05:41:19.549Z,9.50
2019-04-28T05:41:54.543Z,9.50
2019-04-28T05:42:30.283Z,9.60
2019-04-28T05:43:05.426Z,9.50
2019-04-28T05:43:40.601Z,9.50
2019-04-28T05:44:15.634Z,9.50
2019-04-28T05:44:50.954Z,9.60
2019-04-28T05:45:26.847Z,9.60
2019-04-28T05:46:02.199Z,9.60
2019-04-28T05:46:37.355Z,9.60
2019-04-28T05:47:12.675Z,9.60
2019-04-28T05:47:47.995Z,9.60
2019-04-28T05:48:41.136Z,9.60
2019-04-28T05:49:39.706Z,9.60
2019-04-28T05:50:24.085Z,9.60
2019-04-28T05:51:03.408Z,9.70
2019-04-28T05:51:40.230Z,9.70
2019-04-28T05:52:36.887Z,9.70
2019-04-28T05:53:23.172Z,9.70
2019-04-28T05:54:06.407Z,9.70
2019-04-28T05:54:52.974Z,9.70
2019-04-28T05:55:47.430Z,9.70
2019-04-28T05:56:29.496Z,9.70
2019-04-28T05:57:11.522Z,9.70
2019-04-28T05:57:53.042Z,9.70
2019-04-28T05:58:33.059Z,9.70
2019-04-28T05:59:15.037Z,9.70
2019-04-28T06:00:14.533Z,9.80
2019-04-28T06:01:23.796Z,9.70
2019-04-28T06:02:02.263Z,9.70
2019-04-28T06:02:40.856Z,9.70
2019-04-28T06:03:16.710Z,9.70
2019-04-28T06:03:52.135Z,9.70
2019-04-28T06:04:30.315Z,9.70
2019-04-28T06:05:05.175Z,9.70
2019-04-28T06:05:40.583Z,9.70
2019-04-28T06:06:15.626Z,9.70
2019-04-28T06:06:52.624Z,9.70
2019-04-28T06:07:33.666Z,9.70
2019-04-28T06:08:21.823Z,9.70
2019-04-28T06:09:02.099Z,9.70
2019-04-28T06:09:47.680Z,9.70
2019-04-28T06:10:22.719Z,9.70
2019-04-28T06:10:59.913Z,9.70
2019-04-28T06:11:36.212Z,9.70
2019-04-28T06:12:13.571Z,9.70
2019-04-28T06:12:49.606Z,9.70
2019-04-28T06:13:25.823Z,9.70
2019-04-28T06:14:01.183Z,9.70
2019-04-28T06:14:36.222Z,9.60
2019-04-28T06:15:11.997Z,9.60
2019-04-28T06:15:47.291Z,9.60
2019-04-28T06:16:22.614Z,9.60
2019-04-28T06:16:58.037Z,9.70
2019-04-28T06:17:33.080Z,9.70
2019-04-28T06:18:08.125Z,9.70
2019-04-28T06:18:43.730Z,9.70
2019-04-28T06:19:20.179Z,9.70
2019-04-28T06:19:55.411Z,9.70
2019-04-28T06:20:30.459Z,9.70
2019-04-28T06:21:05.574Z,9.70
2019-04-28T06:21:40.620Z,9.70
2019-04-28T06:22:17.824Z,9.70
2019-04-28T06:22:52.727Z,9.70
2019-04-28T06:23:27.871Z,9.70
2019-04-28T06:24:03.007Z,9.70
2019-04-28T06:24:38.119Z,9.70
2019-04-28T06:25:13.243Z,9.70
2019-04-28T06:25:49.243Z,9.70
2019-04-28T06:26:24.439Z,9.70
2019-04-28T06:27:00.164Z,9.80
2019-04-28T06:27:35.210Z,9.80
2019-04-28T06:28:10.334Z,9.80
2019-04-28T06:28:45.371Z,9.80
2019-04-28T06:29:20.404Z,9.80
2019-04-28T06:29:55.499Z,9.80
2019-04-28T06:30:30.624Z,9.80
2019-04-28T06:31:05.678Z,9.80
2019-04-28T06:31:40.849Z,9.80
2019-04-28T06:32:16.255Z,9.80
2019-04-28T06:32:51.330Z,9.80
2019-04-28T06:33:26.404Z,9.90
2019-04-28T06:34:01.627Z,9.90
2019-04-28T06:34:36.699Z,9.80
2019-04-28T06:35:12.111Z,9.90
2019-04-28T06:35:47.278Z,9.90
2019-04-28T06:36:22.408Z,9.90
2019-04-28T06:36:57.621Z,9.90
2019-04-28T06:37:32.698Z,10.00
2019-04-28T06:38:08.113Z,9.90
2019-04-28T06:38:43.608Z,10.00
2019-04-28T06:39:18.727Z,10.00
2019-04-28T06:39:53.877Z,10.00
2019-04-28T06:40:29.219Z,10.00
2019-04-28T06:41:04.263Z,10.00
2019-04-28T06:41:39.563Z,10.00
2019-04-28T06:42:14.938Z,10.10
2019-04-28T06:42:50.018Z,10.00
2019-04-28T06:43:25.181Z,10.10
2019-04-28T06:44:00.238Z,10.10
2019-04-28T06:44:35.326Z,10.10
2019-04-28T06:45:10.389Z,10.10
2019-04-28T06:45:45.463Z,10.10
2019-04-28T06:46:20.527Z,10.10
2019-04-28T06:46:55.595Z,10.10
2019-04-28T06:47:30.719Z,10.10
2019-04-28T06:48:05.802Z,10.10
2019-04-28T06:48:40.876Z,10.20
2019-04-28T06:49:15.941Z,10.20
2019-04-28T06:49:51.038Z,10.20
2019-04-28T06:50:26.375Z,10.20
2019-04-28T06:51:01.511Z,10.20
2019-04-28T06:51:36.664Z,10.20
2019-04-28T06:52:11.728Z,10.30
2019-04-28T06:52:46.799Z,10.20
2019-04-28T06:53:22.944Z,10.30
2019-04-28T06:53:57.994Z,10.30
2019-04-28T06:54:33.079Z,10.30
2019-04-28T06:55:08.448Z,10.30
2019-04-28T06:55:43.514Z,10.40
2019-04-28T06:56:18.579Z,10.40
2019-04-28T06:56:53.683Z,10.40
2019-04-28T06:57:28.806Z,10.40
2019-04-28T06:58:04.129Z,10.40
2019-04-28T06:58:39.267Z,10.40
2019-04-28T06:59:14.324Z,10.40
2019-04-28T06:59:49.912Z,10.40
2019-04-28T07:00:24.971Z,10.40
2019-04-28T07:01:00.045Z,10.40
2019-04-28T07:01:35.372Z,10.40
2019-04-28T07:02:10.436Z,10.40
2019-04-28T07:02:45.510Z,10.40
2019-04-28T07:03:23.174Z,10.40
2019-04-28T07:03:57.364Z,10.40
2019-04-28T07:04:32.440Z,10.40
2019-04-28T07:05:07.593Z,10.40
2019-04-28T07:05:42.740Z,10.40
2019-04-28T07:06:17.794Z,10.40
2019-04-28T07:06:52.952Z,10.40
2019-04-28T07:07:28.109Z,10.40
2019-04-28T07:08:03.170Z,10.40
2019-04-28T07:08:38.200Z,10.40
2019-04-28T07:09:13.327Z,10.40
2019-04-28T07:09:48.423Z,10.40
2019-04-28T07:10:23.563Z,10.40
2019-04-28T07:10:58.955Z,10.50
2019-04-28T07:11:34.278Z,10.50
2019-04-28T07:12:09.357Z,10.50
2019-04-28T07:12:44.429Z,10.50
2019-04-28T07:13:20.707Z,10.50
2019-04-28T07:13:55.882Z,10.50
2019-04-28T07:14:30.968Z,10.50
2019-04-28T07:15:07.586Z,10.50
2019-04-28T07:15:42.930Z,10.50
2019-04-28T07:16:19.210Z,10.60
2019-04-28T07:16:54.315Z,10.60
2019-04-28T07:17:29.380Z,10.60
2019-04-28T07:18:04.446Z,10.60
2019-04-28T07:18:39.692Z,10.60
2019-04-28T07:19:15.241Z,10.70
2019-04-28T07:19:58.299Z,10.60
2019-04-28T07:21:00.511Z,10.70
2019-04-28T07:21:40.881Z,10.70
2019-04-28T07:22:23.012Z,10.70
2019-04-28T07:22:58.347Z,10.70
2019-04-28T07:23:34.203Z,10.80
2019-04-28T07:24:09.271Z,10.80
2019-04-28T07:24:44.942Z,10.80
2019-04-28T07:25:20.190Z,10.80
2019-04-28T07:25:55.558Z,10.90
2019-04-28T07:26:30.620Z,10.90
2019-04-28T07:27:08.731Z,10.90
2019-04-28T07:27:43.827Z,10.90
2019-04-28T07:28:19.192Z,10.90
2019-04-28T07:28:55.725Z,10.90
2019-04-28T07:29:30.835Z,11.00
2019-04-28T07:30:06.187Z,11.00
2019-04-28T07:30:41.486Z,11.00
2019-04-28T07:31:16.739Z,11.00
2019-04-28T07:31:51.794Z,11.00
2019-04-28T07:32:27.168Z,11.10
2019-04-28T07:33:02.446Z,11.10
2019-04-28T07:33:37.535Z,11.10
2019-04-28T07:34:12.616Z,11.10
2019-04-28T07:34:47.690Z,11.10
2019-04-28T07:35:22.758Z,11.10
2019-04-28T07:35:57.830Z,11.10
2019-04-28T07:36:32.972Z,11.10
2019-04-28T07:37:09.378Z,11.10
2019-04-28T07:37:44.751Z,11.10
2019-04-28T07:38:19.846Z,11.10
2019-04-28T07:38:54.883Z,11.10
2019-04-28T07:39:30.226Z,11.10
2019-04-28T07:40:05.306Z,11.10
2019-04-28T07:40:40.435Z,11.10
2019-04-28T07:41:15.515Z,11.10
2019-04-28T07:41:50.669Z,11.10
2019-04-28T07:42:25.734Z,11.00
2019-04-28T07:43:00.838Z,11.00
2019-04-28T07:43:36.027Z,11.00
2019-04-28T07:44:11.083Z,11.00
2019-04-28T07:44:46.375Z,11.00
2019-04-28T07:45:21.438Z,11.00
2019-04-28T07:45:56.515Z,11.00
2019-04-28T07:46:31.662Z,11.00
2019-04-28T07:47:06.731Z,11.00
2019-04-28T07:47:42.053Z,11.00
2019-04-28T07:48:17.139Z,11.00
2019-04-28T07:48:52.781Z,11.00
2019-04-28T07:49:27.831Z,11.00
2019-04-28T07:50:02.975Z,11.00
2019-04-28T07:50:39.814Z,11.00
2019-04-28T07:51:15.217Z,11.00
2019-04-28T07:52:18.254Z,11.00
2019-04-28T07:52:58.623Z,11.00
2019-04-28T07:53:38.782Z,10.90
2019-04-28T07:54:17.941Z,10.90
2019-04-28T07:54:53.034Z,10.90
2019-04-28T07:55:28.081Z,10.90
2019-04-28T07:56:03.145Z,10.90
2019-04-28T07:56:38.200Z,10.90
2019-04-28T07:57:13.239Z,10.90
2019-04-28T07:57:48.366Z,10.90
2019-04-28T07:58:23.435Z,10.90
2019-04-28T07:58:58.751Z,10.90
2019-04-28T07:59:33.812Z,10.90
2019-04-28T08:00:11.951Z,10.90
2019-04-28T08:00:48.907Z,11.00
2019-04-28T08:01:24.047Z,11.00
2019-04-28T08:01:59.383Z,11.10
2019-04-28T08:02:34.482Z,11.10
2019-04-28T08:03:09.790Z,11.20
2019-04-28T08:03:49.824Z,11.20
2019-04-28T08:04:21.674Z,11.30
2019-04-28T08:04:56.752Z,11.30
2019-04-28T08:05:31.811Z,11.30
2019-04-28T08:06:11.331Z,11.40
2019-04-28T08:06:50.003Z,11.40
2019-04-28T08:07:25.485Z,11.50
2019-04-28T08:08:00.588Z,11.50
2019-04-28T08:08:36.774Z,11.60
2019-04-28T08:09:13.566Z,11.60
2019-04-28T08:09:48.701Z,11.70
2019-04-28T08:10:24.044Z,11.70
2019-04-28T08:10:59.138Z,11.70
2019-04-28T08:11:34.287Z,11.80
2019-04-28T08:12:09.491Z,11.80
2019-04-28T08:12:44.843Z,11.80